Ana Sayfa
METAR-TAF:

METAR-TAF

Havaalanları :

İrkutsk, Rusya

Enlem: 52-16N, Boylam: 104-19E, yükseklik: 513 m

Güncel hava durumu gözlemi

Rapor saat 04:00 UTC de 44 dakika önce yapıldı.
Rüzgar güneydoğudan 4 kt, doğu/güneydoğu ve güney arasında değişken
Sıcaklık 20°C
Nem 73%
Basınç 1010 hPa
Görüş mesafesi: 2200 m
2800 ft yükseklikte parçalı çok bulutlu
Pus, Duman

METAR: UIII 220400Z 14002MPS 110V180 2200 BR FU BKN028 20/15 Q1010 R12/60D NOSIG RMK QFE715/0954

Saat: 12:44 (04:44 UTC)

Tahmin

Rapor saat 04:00 UTC de 44 dakika önce yapıldı.
Ayın 22'si saat 04 UTC'den ayın 23'si saat 03 UTC'ye kadar geçerli Tahmin
Rüzgar güney/güneydoğudan 6 kt
Görüş mesafesi: 2900 m
2000 ft yükseklikte parçalı bulutlu, Kümülonimbus.
Duman
Geçici
ayın 22'si saat 04 UTC'den ayın 22'si saat 14 UTC'ye kadar
Görüş mesafesi: 1400 m
Duman

TAF: UIII 220400Z 2204/2303 16003MPS 2900 FU SCT020CB TEMPO 2204/2214 1400 FU

4.000'den fazla havaalanı için hava durumu gözlemleri ve tahminleri (METAR ve TAF raporları).

Kullanılabilir istasyonlar harita üzerinde sarı ve kırmızı noktalarla gösterilir.

İstasyonun adını görmek için fareyi noktanın üzerinde gezdirin.

Sonrasında hava gözlem ve tahminlerini görmek için tıklayın.

Haritayı değiştirmek için: yaklaştırmak için siyah artı işaretli yeşil düğmeye ve uzaklaştırmak için de eksi işaretli düğmeye hızla tıklayın; bitişik haritalar için yeşil okları kullanın.


METAR-TAF: